Terminal Aerodrome Forecast
Issued by NWS

Home | Current Version | Previous Version | Graphics & Text | Print | Product List | Glossary On
Versions: 1 2 3 4 5 6 7 8 9 10 11 12 13 14 15 16 17 18 19 20 21 22 23
000
FTUS43 KMPX 182320
TAFAXN
TAF
KAXN 182320Z 1900/1924 22010KT P6SM FEW250
     FM190900 17007KT 4SM BR FEW010
     FM191200 18008KT 3SM BR SCT005
     FM191800 17010KT 2SM BR OVC005=

USA.gov is the U.S. government's official web portal to all federal, state and local government web resources and services.